createdAt,value
2022-08-24T00:02:06.402Z,18.40
2022-08-24T00:04:35.960Z,18.43
2022-08-24T00:07:05.978Z,18.46
2022-08-24T00:09:43.105Z,18.42
2022-08-24T00:12:20.905Z,18.41
2022-08-24T00:14:49.986Z,18.39
2022-08-24T00:17:20.601Z,18.37
2022-08-24T00:19:49.663Z,18.32
2022-08-24T00:22:18.913Z,18.26
2022-08-24T00:24:47.901Z,18.17
2022-08-24T00:27:16.807Z,18.10
2022-08-24T00:29:47.114Z,18.09
2022-08-24T00:32:16.084Z,18.07
2022-08-24T00:34:58.743Z,18.08
2022-08-24T00:37:30.004Z,18.06
2022-08-24T00:39:59.675Z,17.99
2022-08-24T00:42:28.727Z,17.91
2022-08-24T00:44:59.823Z,17.86
2022-08-24T00:47:41.052Z,17.85
2022-08-24T00:50:23.293Z,16.93
2022-08-24T00:52:58.048Z,17.86
2022-08-24T00:55:34.066Z,17.86
2022-08-24T00:58:17.052Z,17.81
2022-08-24T01:00:56.378Z,17.70
2022-08-24T01:03:26.672Z,17.63
2022-08-24T01:05:56.394Z,17.60
2022-08-24T01:08:26.268Z,17.46
2022-08-24T01:11:02.195Z,17.30
2022-08-24T01:13:34.920Z,17.62
2022-08-24T01:16:09.465Z,17.60
2022-08-24T01:18:52.246Z,17.58
2022-08-24T01:21:33.160Z,17.54
2022-08-24T01:24:11.283Z,17.28
2022-08-24T01:26:47.149Z,17.22
2022-08-24T01:29:23.444Z,17.31
2022-08-24T01:31:53.849Z,17.24
2022-08-24T01:34:22.865Z,17.17
2022-08-24T01:36:56.230Z,17.13
2022-08-24T01:39:31.739Z,16.77
2022-08-24T01:42:02.368Z,17.07
2022-08-24T01:44:35.274Z,17.07
2022-08-24T01:47:09.823Z,16.23
2022-08-24T01:49:44.212Z,16.07
2022-08-24T01:52:17.327Z,16.93
2022-08-24T01:54:47.672Z,16.92
2022-08-24T01:57:19.607Z,16.90
2022-08-24T01:59:48.670Z,16.91
2022-08-24T02:02:23.374Z,16.89
2022-08-24T02:04:52.456Z,16.95
2022-08-24T02:07:21.498Z,17.00
2022-08-24T02:09:53.322Z,16.96
2022-08-24T02:12:22.735Z,17.00
2022-08-24T02:14:52.002Z,17.01
2022-08-24T02:17:22.828Z,17.01
2022-08-24T02:19:58.990Z,16.98
2022-08-24T02:22:28.372Z,16.96
2022-08-24T02:24:58.769Z,16.91
2022-08-24T02:27:27.856Z,16.85
2022-08-24T02:29:57.678Z,16.79
2022-08-24T02:32:26.750Z,16.76
2022-08-24T02:34:55.669Z,16.75
2022-08-24T02:37:24.615Z,16.82
2022-08-24T02:39:53.751Z,16.86
2022-08-24T02:42:26.190Z,16.90
2022-08-24T02:44:55.683Z,16.90
2022-08-24T02:47:38.028Z,16.86
2022-08-24T02:50:09.438Z,16.82
2022-08-24T02:52:39.516Z,16.76
2022-08-24T02:55:15.103Z,16.75
2022-08-24T02:57:45.660Z,16.75
2022-08-24T03:00:19.371Z,16.74
2022-08-24T03:02:55.520Z,16.73
2022-08-24T03:05:26.073Z,16.76
2022-08-24T03:07:55.709Z,16.73
2022-08-24T03:10:25.013Z,16.71
2022-08-24T03:12:58.863Z,16.68
2022-08-24T03:15:28.280Z,16.66
2022-08-24T03:17:58.432Z,16.66
2022-08-24T03:20:28.624Z,16.62
2022-08-24T03:23:00.679Z,16.57
2022-08-24T03:25:29.839Z,16.49
2022-08-24T03:28:00.476Z,16.43
2022-08-24T03:30:30.498Z,16.40
2022-08-24T03:33:01.254Z,16.39
2022-08-24T03:35:30.431Z,16.37
2022-08-24T03:38:00.844Z,16.33
2022-08-24T03:40:30.217Z,15.88
2022-08-24T03:43:01.177Z,16.31
2022-08-24T03:45:31.308Z,16.33
2022-08-24T03:48:00.682Z,16.34
2022-08-24T03:50:29.848Z,16.31
2022-08-24T03:52:59.128Z,16.24
2022-08-24T03:55:30.937Z,16.19
2022-08-24T03:58:01.844Z,16.19
2022-08-24T04:00:30.922Z,16.22
2022-08-24T04:03:01.203Z,16.23
2022-08-24T04:05:34.855Z,16.20
2022-08-24T04:08:06.860Z,16.17
2022-08-24T04:10:39.447Z,16.16
2022-08-24T04:13:12.776Z,16.19
2022-08-24T04:15:44.518Z,16.23
2022-08-24T04:18:13.836Z,16.27
2022-08-24T04:20:47.717Z,16.28
2022-08-24T04:23:21.718Z,16.28
2022-08-24T04:26:05.576Z,16.04
2022-08-24T04:28:36.013Z,16.33
2022-08-24T04:31:07.767Z,16.35
2022-08-24T04:33:43.937Z,16.37
2022-08-24T04:36:14.638Z,16.26
2022-08-24T04:38:46.957Z,16.47
2022-08-24T04:41:42.247Z,16.54
2022-08-24T04:44:14.490Z,16.56
2022-08-24T04:46:44.071Z,16.57
2022-08-24T04:49:13.444Z,16.58
2022-08-24T04:51:44.927Z,16.63
2022-08-24T04:54:14.532Z,16.66
2022-08-24T04:56:43.890Z,16.70
2022-08-24T04:59:14.954Z,16.72
2022-08-24T05:01:45.224Z,16.75
2022-08-24T05:04:14.947Z,16.75
2022-08-24T05:06:45.818Z,16.77
2022-08-24T05:09:17.545Z,16.78
2022-08-24T05:11:49.717Z,16.83
2022-08-24T05:14:28.819Z,16.87
2022-08-24T05:16:59.274Z,16.89
2022-08-24T05:19:29.288Z,16.93
2022-08-24T05:21:58.936Z,17.00
2022-08-24T05:24:28.770Z,17.08
2022-08-24T05:27:00.622Z,17.25
2022-08-24T05:29:39.073Z,17.49
2022-08-24T05:32:08.506Z,17.76
2022-08-24T05:34:38.245Z,18.00
2022-08-24T05:37:08.822Z,18.10
2022-08-24T05:39:53.063Z,18.26
2022-08-24T05:42:27.826Z,18.23
2022-08-24T05:44:58.480Z,18.43
2022-08-24T05:47:27.932Z,18.57
2022-08-24T05:50:01.439Z,18.59
2022-08-24T05:52:31.316Z,18.55
2022-08-24T05:55:01.370Z,18.55
2022-08-24T05:57:35.645Z,18.74
2022-08-24T06:00:15.697Z,18.86
2022-08-24T06:02:53.066Z,18.86
2022-08-24T06:05:23.720Z,18.94
2022-08-24T06:07:53.035Z,19.05
2022-08-24T06:10:37.997Z,19.16
2022-08-24T06:13:08.733Z,19.23
2022-08-24T06:15:41.114Z,19.33
2022-08-24T06:18:10.875Z,19.51
2022-08-24T06:20:43.888Z,19.62
2022-08-24T06:23:15.560Z,19.78
2022-08-24T06:26:13.380Z,19.84
2022-08-24T06:28:50.120Z,19.97
2022-08-24T06:31:22.164Z,20.17
2022-08-24T06:33:55.288Z,20.29
2022-08-24T06:36:28.991Z,20.34
2022-08-24T06:39:01.975Z,20.31
2022-08-24T06:41:31.623Z,20.18
2022-08-24T06:44:02.015Z,20.14
2022-08-24T06:46:47.488Z,20.16
2022-08-24T06:49:16.650Z,20.06
2022-08-24T06:51:50.598Z,20.18
2022-08-24T06:54:26.582Z,20.36
2022-08-24T06:57:00.779Z,20.53
2022-08-24T06:59:32.474Z,20.75
2022-08-24T07:02:03.004Z,20.97
2022-08-24T07:04:32.711Z,21.07
2022-08-24T07:07:20.454Z,21.00
2022-08-24T07:09:49.719Z,21.03
2022-08-24T07:12:18.307Z,21.03
2022-08-24T07:14:47.301Z,21.18
2022-08-24T07:17:18.116Z,21.28
2022-08-24T07:19:48.466Z,21.40
2022-08-24T07:22:31.296Z,20.32
2022-08-24T07:25:00.348Z,21.46
2022-08-24T07:27:29.871Z,21.50
2022-08-24T07:30:23.250Z,21.81
2022-08-24T07:32:49.493Z,21.93
2022-08-24T07:35:18.775Z,22.05
2022-08-24T07:37:47.804Z,22.05
2022-08-24T07:40:18.828Z,22.39
2022-08-24T07:42:52.720Z,22.46
2022-08-24T07:45:23.640Z,22.42
2022-08-24T07:47:56.452Z,22.26
2022-08-24T07:50:47.701Z,22.40
2022-08-24T07:53:20.831Z,22.30
2022-08-24T07:55:57.728Z,22.27
2022-08-24T07:58:27.656Z,22.74
2022-08-24T08:00:59.188Z,23.13
2022-08-24T08:03:31.988Z,23.55
2022-08-24T08:06:04.023Z,23.91
2022-08-24T08:08:44.666Z,23.45
2022-08-24T08:18:13.717Z,23.80
2022-08-24T08:23:48.617Z,24.41
2022-08-24T08:29:34.782Z,24.59
2022-08-24T08:32:04.871Z,24.49
2022-08-24T08:34:34.706Z,24.70
2022-08-24T08:40:15.401Z,24.92
2022-08-24T08:43:23.510Z,24.61
2022-08-24T08:46:18.625Z,24.42
2022-08-24T08:53:34.289Z,24.80
2022-08-24T08:56:16.110Z,24.81
2022-08-24T08:59:04.647Z,24.63
2022-08-24T09:06:24.146Z,25.08
2022-08-24T09:13:11.742Z,25.48
2022-08-24T09:17:19.280Z,23.83
2022-08-24T09:27:55.996Z,26.26
2022-08-24T09:32:28.690Z,25.91
2022-08-24T09:39:08.803Z,23.86
2022-08-24T09:54:23.950Z,25.78
2022-08-24T10:01:33.429Z,24.88
2022-08-24T10:04:19.306Z,25.68
2022-08-24T10:07:16.046Z,25.90
2022-08-24T13:52:40.732Z,27.71
2022-08-24T14:04:19.412Z,26.73
2022-08-24T14:11:25.374Z,26.99
2022-08-24T14:43:31.293Z,28.54
2022-08-24T14:46:59.452Z,27.10
2022-08-24T14:49:39.209Z,27.35
2022-08-24T14:52:44.612Z,27.03
2022-08-24T14:55:30.801Z,26.96
2022-08-24T14:58:30.465Z,27.20
2022-08-24T15:01:40.553Z,26.87
2022-08-24T15:04:37.297Z,27.00
2022-08-24T15:07:30.653Z,26.98
2022-08-24T15:10:14.913Z,27.17
2022-08-24T15:12:52.493Z,26.80
2022-08-24T15:15:34.136Z,26.98
2022-08-24T15:18:14.544Z,26.56
2022-08-24T15:21:06.426Z,26.72
2022-08-24T15:24:01.370Z,26.56
2022-08-24T15:26:46.689Z,25.98
2022-08-24T15:29:22.516Z,26.02
2022-08-24T15:32:04.061Z,26.20
2022-08-24T15:34:45.864Z,26.22
2022-08-24T15:37:16.999Z,26.13
2022-08-24T15:39:45.857Z,25.92
2022-08-24T15:42:30.180Z,25.75
2022-08-24T15:45:05.079Z,25.81
2022-08-24T15:47:38.243Z,25.52
2022-08-24T15:50:22.571Z,25.87
2022-08-24T15:52:56.599Z,25.93
2022-08-24T15:55:36.815Z,25.96
2022-08-24T15:58:36.382Z,26.02
2022-08-24T16:01:40.104Z,26.09
2022-08-24T16:04:15.781Z,25.90
2022-08-24T16:06:48.479Z,26.11
2022-08-24T16:09:36.571Z,26.12
2022-08-24T16:12:12.698Z,26.15
2022-08-24T16:14:49.029Z,25.92
2022-08-24T16:17:36.437Z,24.22
2022-08-24T16:20:13.200Z,24.55
2022-08-24T16:23:00.804Z,25.94
2022-08-24T16:25:34.723Z,25.84
2022-08-24T16:28:11.531Z,26.10
2022-08-24T16:30:53.943Z,26.02
2022-08-24T16:33:45.657Z,26.02
2022-08-24T16:36:20.555Z,26.06
2022-08-24T16:38:52.904Z,26.14
2022-08-24T16:41:25.669Z,26.16
2022-08-24T16:43:54.932Z,26.21
2022-08-24T16:46:25.678Z,26.24
2022-08-24T16:48:55.521Z,26.26
2022-08-24T16:51:25.524Z,26.27
2022-08-24T16:53:56.231Z,26.20
2022-08-24T16:56:25.684Z,26.10
2022-08-24T16:58:55.175Z,26.02
2022-08-24T17:01:27.609Z,26.02
2022-08-24T17:04:06.524Z,26.01
2022-08-24T17:06:35.812Z,26.03
2022-08-24T17:09:06.282Z,26.04
2022-08-24T17:11:38.016Z,26.11
2022-08-24T17:14:07.109Z,26.05
2022-08-24T17:16:36.645Z,26.03
2022-08-24T17:19:12.849Z,25.97
2022-08-24T17:21:43.582Z,25.77
2022-08-24T17:24:14.780Z,25.66
2022-08-24T17:26:50.915Z,25.54
2022-08-24T17:29:20.891Z,25.45
2022-08-24T17:31:50.931Z,25.35
2022-08-24T17:34:21.815Z,25.26
2022-08-24T17:36:54.309Z,24.82
2022-08-24T17:39:25.681Z,25.06
2022-08-24T17:41:55.952Z,24.98
2022-08-24T17:44:28.772Z,24.91
2022-08-24T17:47:05.080Z,24.81
2022-08-24T17:49:35.051Z,24.75
2022-08-24T17:52:04.455Z,24.65
2022-08-24T17:54:34.856Z,24.54
2022-08-24T17:57:04.070Z,24.48
2022-08-24T17:59:35.524Z,23.76
2022-08-24T18:02:07.403Z,24.25
2022-08-24T18:04:37.656Z,24.21
2022-08-24T18:07:12.047Z,24.13
2022-08-24T18:09:48.324Z,24.15
2022-08-24T18:12:20.000Z,23.88
2022-08-24T18:14:52.656Z,23.93
2022-08-24T18:17:34.631Z,23.79
2022-08-24T18:20:12.165Z,23.79
2022-08-24T18:22:45.047Z,23.67
2022-08-24T18:25:26.093Z,23.60
2022-08-24T18:27:58.985Z,23.53
2022-08-24T18:30:31.022Z,23.35
2022-08-24T18:33:01.893Z,23.41
2022-08-24T18:35:32.821Z,23.44
2022-08-24T18:38:02.196Z,23.38
2022-08-24T18:40:33.043Z,23.32
2022-08-24T18:43:05.009Z,23.25
2022-08-24T18:45:35.985Z,21.96
2022-08-24T18:48:05.728Z,23.07
2022-08-24T18:50:36.811Z,23.03
2022-08-24T18:53:08.793Z,22.92
2022-08-24T18:59:01.160Z,22.80
2022-08-24T19:01:53.720Z,22.71
2022-08-24T19:04:22.934Z,22.61
2022-08-24T19:06:59.679Z,22.49
2022-08-24T19:09:34.528Z,22.41
2022-08-24T19:12:08.010Z,22.40
2022-08-24T19:14:48.296Z,21.96
2022-08-24T19:17:17.846Z,22.32
2022-08-24T19:19:46.940Z,22.21
2022-08-24T19:22:17.385Z,21.82
2022-08-24T19:24:47.282Z,22.01
2022-08-24T19:27:20.253Z,21.90
2022-08-24T19:29:56.606Z,21.72
2022-08-24T19:32:31.793Z,21.57
2022-08-24T19:35:01.251Z,21.44
2022-08-24T19:37:30.284Z,21.34
2022-08-24T19:40:00.547Z,21.26
2022-08-24T19:42:32.215Z,21.19
2022-08-24T19:45:19.698Z,21.10
2022-08-24T19:47:48.894Z,21.02
2022-08-24T19:50:21.314Z,20.94
2022-08-24T19:52:50.667Z,20.90
2022-08-24T19:55:19.563Z,20.86
2022-08-24T19:57:55.899Z,20.03
2022-08-24T20:00:34.247Z,20.81
2022-08-24T20:03:06.438Z,20.89
2022-08-24T20:05:38.485Z,20.89
2022-08-24T20:08:07.404Z,21.03
2022-08-24T20:10:36.459Z,21.07
2022-08-24T20:13:07.259Z,21.02
2022-08-24T20:15:36.282Z,20.98
2022-08-24T20:18:05.742Z,20.98
2022-08-24T20:20:34.844Z,20.91
2022-08-24T20:23:06.428Z,20.76
2022-08-24T20:25:37.205Z,20.58
2022-08-24T20:30:57.557Z,20.68
2022-08-24T20:33:28.112Z,20.76
2022-08-24T20:35:57.558Z,20.71
2022-08-24T20:38:29.329Z,20.63
2022-08-24T20:41:01.788Z,20.56
2022-08-24T20:43:31.885Z,20.48
2022-08-24T20:46:01.483Z,20.27
2022-08-24T20:48:33.865Z,20.52
2022-08-24T20:51:03.244Z,20.62
2022-08-24T20:53:32.252Z,20.65
2022-08-24T20:56:10.150Z,20.61
2022-08-24T20:58:41.607Z,20.60
2022-08-24T21:01:10.796Z,20.61
2022-08-24T21:03:39.951Z,20.58
2022-08-24T21:06:20.888Z,20.57
2022-08-24T21:08:53.367Z,20.56
2022-08-24T21:11:22.624Z,20.53
2022-08-24T21:13:52.909Z,20.53
2022-08-24T21:16:22.144Z,20.50
2022-08-24T21:18:51.298Z,20.44
2022-08-24T21:21:20.509Z,20.40
2022-08-24T21:23:49.514Z,20.39
2022-08-24T21:26:24.772Z,20.37
2022-08-24T21:28:58.068Z,20.28
2022-08-24T21:31:28.784Z,20.15
2022-08-24T21:34:15.313Z,20.12
2022-08-24T21:36:44.405Z,20.14
2022-08-24T21:39:13.241Z,20.12
2022-08-24T21:41:42.361Z,20.09
2022-08-24T21:44:15.032Z,20.00
2022-08-24T21:46:44.437Z,19.89
2022-08-24T21:49:13.418Z,19.82
2022-08-24T21:51:45.431Z,19.83
2022-08-24T21:54:14.649Z,19.89
2022-08-24T21:56:43.837Z,20.00
2022-08-24T21:59:14.287Z,20.04
2022-08-24T22:01:43.785Z,20.00
2022-08-24T22:04:13.483Z,19.96
2022-08-24T22:06:42.517Z,19.96
2022-08-24T22:09:11.600Z,19.93
2022-08-24T22:11:40.693Z,19.95
2022-08-24T22:14:11.694Z,20.01
2022-08-24T22:16:42.495Z,19.96
2022-08-24T22:19:11.910Z,19.92
2022-08-24T22:21:47.725Z,19.93
2022-08-24T22:24:17.227Z,19.96
2022-08-24T22:26:46.424Z,19.93
2022-08-24T22:29:15.902Z,19.86
2022-08-24T22:31:46.729Z,19.81
2022-08-24T22:34:20.967Z,19.60
2022-08-24T22:36:51.439Z,19.55
2022-08-24T22:39:22.763Z,19.81
2022-08-24T22:41:57.491Z,19.77
2022-08-24T22:44:27.887Z,19.77
2022-08-24T22:47:01.902Z,19.31
2022-08-24T22:49:37.078Z,19.73
2022-08-24T22:52:07.372Z,19.68
2022-08-24T22:54:37.042Z,19.70
2022-08-24T22:57:06.229Z,19.64
2022-08-24T22:59:41.666Z,19.63
2022-08-24T23:02:14.930Z,19.55
2022-08-24T23:04:49.517Z,18.22
2022-08-24T23:07:21.761Z,19.48
2022-08-24T23:09:51.240Z,19.47
2022-08-24T23:12:24.713Z,19.47
2022-08-24T23:14:54.513Z,19.04
2022-08-24T23:17:24.920Z,19.50
2022-08-24T23:20:05.200Z,19.44
2022-08-24T23:22:41.211Z,18.80
2022-08-24T23:25:13.866Z,19.10
2022-08-24T23:27:46.623Z,19.45
2022-08-24T23:30:18.444Z,19.39
2022-08-24T23:32:49.259Z,19.36
2022-08-24T23:35:18.384Z,19.34
2022-08-24T23:37:47.924Z,19.23
2022-08-24T23:40:17.401Z,19.32
2022-08-24T23:42:46.538Z,19.30
2022-08-24T23:45:15.955Z,18.32
2022-08-24T23:47:45.064Z,19.26
2022-08-24T23:50:15.491Z,19.23
2022-08-24T23:52:44.218Z,18.87
2022-08-24T23:55:21.313Z,19.09
2022-08-24T23:57:52.397Z,18.77
